createdAt,value
2024-01-22T00:03:11.426Z,6.37
2024-01-22T00:08:13.744Z,6.54
2024-01-22T00:13:17.265Z,6.47
2024-01-22T00:18:19.598Z,6.48
2024-01-22T00:23:21.838Z,6.39
2024-01-22T00:28:23.958Z,6.24
2024-01-22T00:33:26.255Z,5.97
2024-01-22T00:38:28.588Z,5.99
2024-01-22T00:43:30.723Z,6.07
2024-01-22T00:48:33.063Z,6.15
2024-01-22T00:53:35.690Z,6.09
2024-01-22T00:58:38.577Z,6.10
2024-01-22T01:03:41.208Z,6.00
2024-01-22T01:08:43.621Z,5.93
2024-01-22T01:13:45.847Z,6.02
2024-01-22T01:18:48.277Z,6.08
2024-01-22T01:23:51.483Z,5.96
2024-01-22T01:28:54.872Z,5.84
2024-01-22T01:33:57.342Z,5.79
2024-01-22T01:38:59.710Z,5.71
2024-01-22T01:44:01.869Z,5.95
2024-01-22T01:49:04.320Z,6.09
2024-01-22T01:54:10.755Z,5.95
2024-01-22T01:59:13.519Z,5.89
2024-01-22T02:04:15.707Z,5.78
2024-01-22T02:09:17.977Z,5.75
2024-01-22T02:14:20.100Z,5.91
2024-01-22T02:19:22.540Z,5.82
2024-01-22T02:24:24.913Z,5.87
2024-01-22T02:29:27.223Z,5.76
2024-01-22T02:34:29.513Z,5.64
2024-01-22T02:39:31.742Z,5.70
2024-01-22T02:44:36.332Z,5.88
2024-01-22T02:49:38.750Z,5.73
2024-01-22T02:54:41.089Z,5.69
2024-01-22T02:59:43.734Z,5.47
2024-01-22T03:04:46.308Z,5.45
2024-01-22T03:09:48.594Z,5.57
2024-01-22T03:14:50.912Z,5.60
2024-01-22T03:19:53.312Z,5.47
2024-01-22T03:24:55.551Z,5.52
2024-01-22T03:29:57.821Z,5.63
2024-01-22T03:35:00.220Z,5.35
2024-01-22T03:40:02.346Z,5.66
2024-01-22T03:45:05.261Z,5.63
2024-01-22T03:50:08.292Z,5.45
2024-01-22T03:55:11.493Z,5.43
2024-01-22T04:00:14.334Z,5.38
2024-01-22T04:05:16.684Z,5.42
2024-01-22T04:10:18.914Z,5.59
2024-01-22T04:15:21.042Z,5.43
2024-01-22T04:20:23.321Z,5.26
2024-01-22T04:25:25.520Z,5.08
2024-01-22T04:30:27.704Z,4.89
2024-01-22T04:35:29.990Z,5.11
2024-01-22T04:40:32.216Z,5.37
2024-01-22T04:45:34.994Z,5.32
2024-01-22T04:50:37.250Z,5.31
2024-01-22T04:55:39.578Z,5.30
2024-01-22T05:00:41.958Z,5.30
2024-01-22T05:05:44.424Z,5.41
2024-01-22T05:10:47.002Z,5.47
2024-01-22T05:15:49.395Z,5.51
2024-01-22T05:20:51.612Z,5.38
2024-01-22T05:25:53.723Z,5.22
2024-01-22T05:30:55.828Z,5.10
2024-01-22T05:35:58.130Z,5.39
2024-01-22T05:41:00.537Z,5.44
2024-01-22T05:46:02.795Z,5.46
2024-01-22T05:51:05.176Z,5.36
2024-01-22T05:56:08.147Z,5.25
2024-01-22T06:01:10.787Z,5.21
2024-01-22T06:06:13.054Z,5.14
2024-01-22T06:11:18.667Z,5.41
2024-01-22T06:16:21.701Z,5.40
2024-01-22T06:21:24.203Z,5.36
2024-01-22T06:26:26.993Z,5.31
2024-01-22T06:31:30.121Z,5.33
2024-01-22T06:36:33.118Z,5.13
2024-01-22T06:41:36.450Z,5.37
2024-01-22T06:46:38.675Z,5.49
2024-01-22T06:51:46.098Z,5.63
2024-01-22T06:56:49.587Z,5.58
2024-01-22T07:01:53.811Z,5.65
2024-01-22T07:06:56.771Z,5.61
2024-01-22T07:11:59.607Z,5.92
2024-01-22T07:17:01.942Z,6.16
2024-01-22T07:22:05.492Z,6.17
2024-01-22T07:27:08.721Z,6.25
2024-01-22T07:32:10.917Z,6.19
2024-01-22T07:37:13.128Z,6.41
2024-01-22T07:42:15.441Z,6.52
2024-01-22T07:47:19.978Z,6.62
2024-01-22T07:52:23.813Z,6.64
2024-01-22T07:57:26.115Z,6.68
2024-01-22T08:02:28.393Z,6.73
2024-01-22T08:07:31.391Z,6.88
2024-01-22T08:12:33.702Z,7.23
2024-01-22T08:17:39.390Z,7.28
2024-01-22T08:22:44.972Z,7.40
2024-01-22T08:27:47.794Z,7.34
2024-01-22T08:32:50.767Z,7.47
2024-01-22T08:37:54.494Z,7.52
2024-01-22T08:42:57.087Z,7.29
2024-01-22T08:47:59.493Z,7.91
2024-01-22T08:53:02.108Z,7.59
2024-01-22T08:58:06.265Z,8.14
2024-01-22T09:03:08.696Z,8.23
2024-01-22T09:08:10.833Z,8.46
2024-01-22T09:13:13.014Z,8.64
2024-01-22T09:18:16.810Z,8.69
2024-01-22T09:23:19.448Z,8.70
2024-01-22T09:28:22.920Z,8.85
2024-01-22T09:33:25.636Z,9.13
2024-01-22T09:38:27.887Z,9.24
2024-01-22T09:43:30.304Z,9.58
2024-01-22T09:48:33.985Z,9.83
2024-01-22T09:53:39.162Z,9.78
2024-01-22T09:58:46.910Z,10.06
2024-01-22T10:03:50.717Z,10.02
2024-01-22T10:08:59.567Z,10.21
2024-01-22T10:14:02.050Z,10.18
2024-01-22T10:19:10.012Z,10.03
2024-01-22T10:24:12.683Z,9.92
2024-01-22T10:29:20.301Z,10.05
2024-01-22T10:34:26.345Z,10.35
2024-01-22T10:39:28.744Z,10.52
2024-01-22T10:44:31.198Z,10.37
2024-01-22T10:49:34.652Z,10.67
2024-01-22T10:54:38.643Z,10.60
2024-01-22T10:59:47.206Z,10.39
2024-01-22T11:05:03.428Z,10.35
2024-01-22T11:10:10.605Z,10.28
2024-01-22T11:15:12.886Z,10.20
2024-01-22T11:20:20.081Z,10.53
2024-01-22T11:25:22.291Z,10.53
2024-01-22T11:30:24.442Z,10.89
2024-01-22T11:35:38.596Z,10.86
2024-01-22T11:40:56.261Z,11.01
2024-01-22T11:46:00.527Z,11.19
2024-01-22T11:51:09.773Z,11.11
2024-01-22T11:56:14.466Z,11.16
2024-01-22T12:01:20.417Z,11.25
2024-01-22T12:06:23.271Z,11.50
2024-01-22T12:11:25.686Z,11.82
2024-01-22T12:16:27.857Z,11.69
2024-01-22T12:21:30.242Z,11.66
2024-01-22T12:26:32.414Z,11.89
2024-01-22T12:31:34.627Z,11.51
2024-01-22T12:36:38.015Z,11.55
2024-01-22T12:41:40.260Z,11.74
2024-01-22T12:46:43.703Z,11.63
2024-01-22T12:51:45.876Z,11.63
2024-01-22T12:56:48.511Z,11.83
2024-01-22T13:01:50.736Z,11.91
2024-01-22T13:06:53.109Z,12.02
2024-01-22T13:11:55.627Z,12.15
2024-01-22T13:17:00.052Z,12.21
2024-01-22T13:22:02.349Z,12.29
2024-01-22T13:27:06.544Z,12.44
2024-01-22T13:32:08.976Z,12.36
2024-01-22T13:37:11.665Z,12.37
2024-01-22T13:42:14.055Z,12.16
2024-01-22T13:47:21.904Z,12.20
2024-01-22T13:52:36.577Z,12.39
2024-01-22T13:57:39.105Z,12.51
2024-01-22T14:02:41.336Z,12.66
2024-01-22T14:07:43.510Z,12.72
2024-01-22T14:12:45.742Z,12.80
2024-01-22T14:17:47.975Z,12.73
2024-01-22T14:22:50.378Z,12.71
2024-01-22T14:27:53.234Z,12.89
2024-01-22T14:32:56.919Z,13.04
2024-01-22T14:37:59.551Z,13.04
2024-01-22T14:43:04.111Z,13.22
2024-01-22T14:48:06.804Z,13.17
2024-01-22T14:53:10.344Z,13.30
2024-01-22T14:58:12.475Z,13.22
2024-01-22T15:03:14.805Z,13.12
2024-01-22T15:08:17.054Z,12.91
2024-01-22T15:13:19.415Z,12.56
2024-01-22T15:18:21.758Z,12.41
2024-01-22T15:23:24.189Z,12.13
2024-01-22T15:28:27.414Z,11.88
2024-01-22T15:33:30.088Z,11.54
2024-01-22T15:38:32.327Z,11.46
2024-01-22T15:43:34.497Z,11.28
2024-01-22T15:48:36.842Z,11.10
2024-01-22T15:53:39.214Z,11.08
2024-01-22T15:58:41.538Z,10.83
2024-01-22T16:03:43.715Z,10.76
2024-01-22T16:08:46.054Z,10.61
2024-01-22T16:13:50.213Z,10.60
2024-01-22T16:18:55.625Z,10.55
2024-01-22T16:23:58.045Z,10.49
2024-01-22T16:29:00.657Z,9.90
2024-01-22T16:34:04.046Z,10.07
2024-01-22T16:39:06.497Z,10.01
2024-01-22T16:44:09.148Z,10.03
2024-01-22T16:49:12.076Z,9.94
2024-01-22T16:54:14.493Z,9.80
2024-01-22T16:59:17.226Z,9.78
2024-01-22T17:04:19.521Z,9.55
2024-01-22T17:09:22.210Z,9.80
2024-01-22T17:14:24.749Z,9.75
2024-01-22T17:19:27.131Z,9.60
2024-01-22T17:24:29.472Z,9.43
2024-01-22T17:29:31.821Z,9.45
2024-01-22T17:34:35.775Z,9.36
2024-01-22T17:39:38.125Z,9.42
2024-01-22T17:44:41.543Z,9.35
2024-01-22T17:49:43.711Z,9.31
2024-01-22T17:54:45.882Z,9.11
2024-01-22T17:59:48.601Z,9.09
2024-01-22T18:04:50.814Z,9.05
2024-01-22T18:09:53.368Z,9.17
2024-01-22T18:14:55.921Z,9.04
2024-01-22T18:19:58.083Z,8.97
2024-01-22T18:25:00.266Z,8.81
2024-01-22T18:30:02.609Z,8.76
2024-01-22T18:35:05.172Z,8.64
2024-01-22T18:40:10.237Z,8.75
2024-01-22T18:45:13.331Z,8.54
2024-01-22T18:50:16.075Z,8.41
2024-01-22T18:55:20.313Z,8.30
2024-01-22T19:00:22.613Z,8.03
2024-01-22T19:05:24.860Z,8.08
2024-01-22T19:10:27.127Z,7.96
2024-01-22T19:15:29.335Z,7.88
2024-01-22T19:20:32.037Z,7.63
2024-01-22T19:25:34.740Z,7.55
2024-01-22T19:30:36.965Z,7.60
2024-01-22T19:35:39.592Z,7.51
2024-01-22T19:40:41.836Z,7.53
2024-01-22T19:45:44.608Z,7.30
2024-01-22T19:50:48.029Z,7.24
2024-01-22T19:55:50.664Z,7.11
2024-01-22T20:00:53.008Z,6.86
2024-01-22T20:05:55.394Z,6.93
2024-01-22T20:10:57.768Z,7.14
2024-01-22T20:16:00.098Z,6.99
2024-01-22T20:21:02.266Z,6.99
2024-01-22T20:26:04.748Z,6.95
2024-01-22T20:31:06.921Z,7.07
2024-01-22T20:36:09.432Z,7.13
2024-01-22T20:41:15.168Z,7.13
2024-01-22T20:46:17.609Z,6.74
2024-01-22T20:51:19.859Z,6.54
2024-01-22T20:56:22.850Z,6.44
2024-01-22T21:01:25.256Z,6.57
2024-01-22T21:06:27.963Z,6.36
2024-01-22T21:11:30.884Z,6.32
2024-01-22T21:16:33.468Z,6.12
2024-01-22T21:21:35.857Z,6.15
2024-01-22T21:26:38.144Z,6.03
2024-01-22T21:31:40.576Z,6.04
2024-01-22T21:36:42.859Z,6.07
2024-01-22T21:41:45.171Z,5.79
2024-01-22T21:46:47.555Z,5.89
2024-01-22T21:51:49.698Z,5.93
2024-01-22T21:56:51.852Z,5.99
2024-01-22T22:01:54.449Z,6.01
2024-01-22T22:06:56.904Z,6.07
2024-01-22T22:12:00.353Z,5.94
2024-01-22T22:17:02.948Z,5.82
2024-01-22T22:22:05.301Z,5.67
2024-01-22T22:27:08.456Z,5.96
2024-01-22T22:32:10.639Z,5.91
2024-01-22T22:37:12.945Z,5.93
2024-01-22T22:42:15.169Z,5.85
2024-01-22T22:47:18.197Z,5.68
2024-01-22T22:52:20.330Z,5.82
2024-01-22T22:57:22.563Z,5.93
2024-01-22T23:02:27.284Z,5.81
2024-01-22T23:07:29.584Z,5.70
2024-01-22T23:12:31.873Z,5.60
2024-01-22T23:17:34.144Z,5.47
2024-01-22T23:22:36.942Z,5.62
2024-01-22T23:27:39.169Z,5.72
2024-01-22T23:32:41.338Z,5.47
2024-01-22T23:37:49.839Z,5.41
2024-01-22T23:42:52.043Z,5.35
2024-01-22T23:47:54.659Z,5.27
2024-01-22T23:52:56.932Z,5.35
2024-01-22T23:57:59.075Z,5.43
